METAR Data
IDs: Format: Raw Decoded Include TAF

Data at: 1111 UTC 23 Jun 2021

KSET 231054Z AUTO 19004KT 10SM CLR 18/09 A3004 RMK AO2 SLP167 T01780094
No TAF found for KSET

KSTL 231051Z 19006KT 10SM FEW120 FEW250 18/09 A3005 RMK AO2 SLP168 T01830094

KSTL 230852Z 2309/2412 18009KT P6SM BKN120
  FM231500 17012G18KT P6SM FEW050 BKN250
  FM240100 16011KT P6SM SCT250